Time;durP1;ratioP1;P1;durP2;ratioP2;P2;SDS_P1;SDS_P2;PMS_P1;PMS_P2;Temp;Humidity;BMP_temperature;BMP_pressure;BME280_temperature;BME280_humidity;BME280_pressure;Samples;Min_cycle;Max_cycle;Signal;HPM_P1;HPM_P2
2023/05/19 00:01:04;;;;;;;;;;;;;;;8.27;58.87;97288.19;6297092;28;19920;-75
2023/05/19 00:04:05;;;;;;;;;;;;;;;8.24;59.34;97284.88;6297022;28;20298;-74
2023/05/19 00:07:10;;;;;;;;;;;;;;;8.30;59.32;97289.81;6296359;28;19966;-75
2023/05/19 00:10:12;;;;;;;;;;;;;;;8.23;59.38;97291.03;6296095;28;19929;-75
2023/05/19 00:13:16;;;;;;;;;;;;;;;8.20;59.36;97286.78;6296808;28;19924;-74
2023/05/19 00:16:20;;;;;;;;;;;;;;;8.19;59.04;97284.25;6296711;28;19982;-74
2023/05/19 00:19:23;;;;;;;;;;;;;;;8.24;59.24;97288.34;6296076;28;19927;-74
2023/05/19 00:22:26;;;;;;;;;;;;;;;8.23;58.58;97277.91;6296992;28;19920;-74
2023/05/19 00:25:32;;;;;;;;;;;;;;;8.26;58.65;97285.63;6297055;28;19936;-74
2023/05/19 00:28:33;;;;;;;;;;;;;;;8.24;58.46;97283.09;6295600;28;19920;-74
2023/05/19 00:31:36;;;;;;;;;;;;;;;8.29;58.94;97282.84;6295587;28;20287;-75
2023/05/19 00:34:40;;;;;;;;;;;;;;;8.22;58.71;97279.69;6296457;28;20468;-75
2023/05/19 00:37:43;;;;;;;;;;;;;;;8.19;58.76;97289.50;6295378;28;19920;-74
2023/05/19 00:40:46;;;;;;;;;;;;;;;8.19;58.88;97299.97;6296314;28;19920;-74
2023/05/19 00:43:48;;;;;;;;;;;;;;;8.19;58.98;97294.72;6295650;28;20305;-74
2023/05/19 00:46:51;;;;;;;;;;;;;;;8.17;59.42;97292.16;6295908;28;19927;-74
2023/05/19 00:49:52;;;;;;;;;;;;;;;8.15;59.71;97287.94;6295948;28;19920;-74
2023/05/19 00:52:57;;;;;;;;;;;;;;;8.13;59.57;97290.63;6295918;28;20293;-75
2023/05/19 00:56:02;;;;;;;;;;;;;;;8.10;59.62;97296.88;6295880;28;20487;-74
2023/05/19 00:59:08;;;;;;;;;;;;;;;8.09;59.49;97300.41;6295822;28;19985;-75
2023/05/19 01:02:09;;;;;;;;;;;;;;;8.13;59.44;97302.91;6295760;28;19920;-73
2023/05/19 01:05:12;;;;;;;;;;;;;;;8.14;59.49;97292.31;6295806;28;19917;-74
2023/05/19 01:08:17;;;;;;;;;;;;;;;8.18;59.43;97295.63;6295594;28;20011;-74
2023/05/19 01:11:18;;;;;;;;;;;;;;;8.27;59.50;97287.34;6295317;28;19956;-74
2023/05/19 01:14:21;;;;;;;;;;;;;;;8.23;59.17;97296.28;6295724;28;19920;-74
2023/05/19 01:17:33;;;;;;;;;;;;;;;8.26;59.26;97285.63;6295075;28;19920;-74
2023/05/19 01:20:51;;;;;;;;;;;;;;;8.30;59.02;97287.19;6295161;28;19921;-74
2023/05/19 01:24:05;;;;;;;;;;;;;;;8.31;58.97;97296.75;6277945;28;19916;-74
2023/05/19 01:27:09;;;;;;;;;;;;;;;8.36;58.82;97293.91;6294234;28;19920;-74
2023/05/19 01:30:16;;;;;;;;;;;;;;;8.36;58.58;97291.28;6276666;28;19985;-75
2023/05/19 01:33:17;;;;;;;;;;;;;;;8.39;58.60;97294.63;6294590;28;20027;-75
2023/05/19 01:36:22;;;;;;;;;;;;;;;8.43;58.58;97292.69;6294234;28;19920;-74
2023/05/19 01:39:30;;;;;;;;;;;;;;;8.47;58.30;97292.47;6294857;28;19920;-74
2023/05/19 01:42:36;;;;;;;;;;;;;;;8.51;57.93;97280.91;6294483;28;19920;-76
2023/05/19 01:45:38;;;;;;;;;;;;;;;8.58;57.84;97286.72;6294617;28;20423;-74
2023/05/19 01:48:43;;;;;;;;;;;;;;;8.58;57.64;97283.22;6294865;28;20421;-75
2023/05/19 01:51:47;;;;;;;;;;;;;;;8.65;57.35;97276.75;6294863;28;20382;-75
2023/05/19 01:54:48;;;;;;;;;;;;;;;8.67;57.17;97290.63;6293911;28;20362;-75
2023/05/19 01:58:01;;;;;;;;;;;;;;;8.65;56.93;97287.25;6294815;28;19978;-75
2023/05/19 02:01:21;;;;;;;;;;;;;;;8.64;57.01;97290.81;6294122;28;19921;-73
2023/05/19 02:04:42;;;;;;;;;;;;;;;8.59;56.69;97290.19;6294264;28;19927;-75
2023/05/19 02:07:51;;;;;;;;;;;;;;;8.68;56.40;97287.09;6294368;28;19921;-74
2023/05/19 02:11:01;;;;;;;;;;;;;;;8.61;56.20;97290.97;6294814;28;19920;-76
2023/05/19 02:14:07;;;;;;;;;;;;;;;8.59;56.04;97290.19;6294246;28;20445;-75
2023/05/19 02:17:11;;;;;;;;;;;;;;;8.62;55.93;97287.41;6294398;28;19920;-75
2023/05/19 02:20:17;;;;;;;;;;;;;;;8.72;55.63;97288.63;6294606;28;20388;-75
2023/05/19 02:23:18;;;;;;;;;;;;;;;8.73;55.42;97290.31;6294142;28;19943;-75
2023/05/19 02:26:20;;;;;;;;;;;;;;;8.75;55.49;97294.56;6294069;28;19920;-73
2023/05/19 02:29:21;;;;;;;;;;;;;;;8.80;55.16;97296.94;6293225;28;19920;-74
2023/05/19 02:32:27;;;;;;;;;;;;;;;8.85;54.92;97302.81;6296497;28;20301;-75
2023/05/19 02:35:34;;;;;;;;;;;;;;;8.90;54.90;97303.44;6299033;28;19990;-74
2023/05/19 02:38:43;;;;;;;;;;;;;;;8.95;54.70;97296.16;6298781;28;19955;-75
2023/05/19 02:41:48;;;;;;;;;;;;;;;8.99;54.72;97308.19;6298686;28;20397;-74
2023/05/19 02:44:51;;;;;;;;;;;;;;;8.99;54.80;97313.44;6298502;28;19920;-75
2023/05/19 02:47:52;;;;;;;;;;;;;;;8.94;55.29;97307.56;6298658;28;19927;-75
2023/05/19 02:50:55;;;;;;;;;;;;;;;8.96;56.00;97308.34;6281220;28;20405;-74
2023/05/19 02:53:56;;;;;;;;;;;;;;;8.82;56.50;97305.59;6298589;28;19927;-74
2023/05/19 02:57:00;;;;;;;;;;;;;;;8.73;56.65;97306.06;6298431;28;20225;-74
2023/05/19 03:00:01;;;;;;;;;;;;;;;8.72;56.86;97299.97;6297827;28;20003;-76
2023/05/19 03:03:09;;;;;;;;;;;;;;;8.75;57.11;97304.22;6281164;28;20507;-74
2023/05/19 03:06:10;;;;;;;;;;;;;;;8.78;57.20;97304.06;6297137;28;19928;-75
2023/05/19 03:09:18;;;;;;;;;;;;;;;8.85;57.32;97300.19;6298208;28;20380;-74
2023/05/19 03:12:22;;;;;;;;;;;;;;;9.08;57.19;97306.03;6297683;28;20381;-75
2023/05/19 03:15:26;;;;;;;;;;;;;;;9.08;57.34;97300.78;6297856;28;20015;-75
2023/05/19 03:18:30;;;;;;;;;;;;;;;9.05;57.11;97290.44;6297755;28;19924;-74
2023/05/19 03:21:33;;;;;;;;;;;;;;;9.17;57.19;97295.03;6296780;28;20382;-74
2023/05/19 03:24:36;;;;;;;;;;;;;;;9.17;57.55;97290.66;6297166;28;19927;-75
2023/05/19 03:27:37;;;;;;;;;;;;;;;9.12;57.50;97299.72;6298016;28;19927;-73
2023/05/19 03:30:38;;;;;;;;;;;;;;;9.07;57.68;97304.34;6296780;28;20354;-74
2023/05/19 03:33:42;;;;;;;;;;;;;;;9.04;57.55;97315.00;6298040;28;19924;-75
2023/05/19 03:36:44;;;;;;;;;;;;;;;9.03;57.59;97315.91;6297070;28;19920;-73
2023/05/19 03:39:47;;;;;;;;;;;;;;;9.10;57.44;97315.53;6297356;28;19989;-74
2023/05/19 03:42:49;;;;;;;;;;;;;;;9.14;57.29;97314.47;6296175;28;20360;-74
2023/05/19 03:45:50;;;;;;;;;;;;;;;9.12;57.74;97310.22;6297219;28;19924;-74
2023/05/19 03:48:58;;;;;;;;;;;;;;;9.20;57.70;97315.91;6297326;28;19921;-74
2023/05/19 03:52:02;;;;;;;;;;;;;;;9.25;57.72;97318.28;6296739;28;19920;-75
2023/05/19 03:55:06;;;;;;;;;;;;;;;9.22;57.83;97321.91;6297174;28;20018;-73
2023/05/19 03:58:13;;;;;;;;;;;;;;;9.26;57.85;97323.47;6297066;28;19920;-75
2023/05/19 04:01:14;;;;;;;;;;;;;;;9.22;58.18;97316.66;6296672;28;20301;-74
2023/05/19 04:04:15;;;;;;;;;;;;;;;9.18;58.92;97317.75;6296660;28;19920;-75
2023/05/19 04:07:19;;;;;;;;;;;;;;;9.17;58.82;97329.16;6297038;28;19920;-74
2023/05/19 04:10:22;;;;;;;;;;;;;;;9.24;58.54;97320.06;6296563;28;19926;-76
2023/05/19 04:13:31;;;;;;;;;;;;;;;9.33;58.65;97322.19;6296846;28;19927;-74
2023/05/19 04:16:41;;;;;;;;;;;;;;;9.44;59.16;97319.84;6296645;28;19928;-75
2023/05/19 04:19:44;;;;;;;;;;;;;;;9.55;58.25;97323.69;6296286;28;19924;-73
2023/05/19 04:22:47;;;;;;;;;;;;;;;9.65;58.24;97327.50;6296898;28;20014;-74
2023/05/19 04:25:50;;;;;;;;;;;;;;;9.67;57.92;97334.38;6296167;28;19925;-75
2023/05/19 04:28:55;;;;;;;;;;;;;;;9.60;58.29;97334.81;6296359;28;20010;-74
2023/05/19 04:32:00;;;;;;;;;;;;;;;9.54;58.56;97329.88;6296664;28;19920;-74
2023/05/19 04:35:04;;;;;;;;;;;;;;;9.43;58.91;97318.16;6296521;28;20300;-74
2023/05/19 04:38:05;;;;;;;;;;;;;;;9.42;59.32;97321.69;6295423;28;19950;-74
2023/05/19 04:41:15;;;;;;;;;;;;;;;9.34;59.43;97323.91;6295945;28;19986;-75
2023/05/19 04:44:20;;;;;;;;;;;;;;;9.39;59.18;97321.88;6295822;28;19920;-73
2023/05/19 04:47:21;;;;;;;;;;;;;;;9.42;59.31;97326.94;6295329;28;19955;-75
2023/05/19 04:50:22;;;;;;;;;;;;;;;9.41;59.72;97327.91;6294642;28;19920;-76
2023/05/19 04:53:28;;;;;;;;;;;;;;;9.32;59.90;97343.31;6295576;28;20390;-74
2023/05/19 04:56:33;;;;;;;;;;;;;;;9.36;59.79;97332.53;6295255;28;19924;-74
2023/05/19 04:59:37;;;;;;;;;;;;;;;9.51;59.40;97340.53;6295563;28;19921;-75
2023/05/19 05:02:41;;;;;;;;;;;;;;;9.63;59.20;97343.38;6295669;28;19920;-75
2023/05/19 05:05:47;;;;;;;;;;;;;;;9.62;59.42;97335.56;6295611;28;19920;-75
2023/05/19 05:08:48;;;;;;;;;;;;;;;9.65;59.53;97343.28;6294944;28;19921;-75
2023/05/19 05:11:51;;;;;;;;;;;;;;;9.56;59.69;97341.16;6295504;28;20389;-75
2023/05/19 05:14:53;;;;;;;;;;;;;;;9.61;59.79;97334.72;6277375;28;19922;-74
2023/05/19 05:17:58;;;;;;;;;;;;;;;9.69;59.49;97350.06;6294387;28;20322;-73
2023/05/19 05:21:05;;;;;;;;;;;;;;;9.70;59.43;97341.25;6295401;28;19920;-74
2023/05/19 05:24:06;;;;;;;;;;;;;;;9.64;59.53;97347.69;6294323;28;19923;-75
2023/05/19 05:27:10;;;;;;;;;;;;;;;9.74;59.95;97341.94;6295230;28;19924;-75
2023/05/19 05:30:14;;;;;;;;;;;;;;;9.64;59.78;97341.59;6295392;28;20293;-74
2023/05/19 05:33:21;;;;;;;;;;;;;;;9.70;60.01;97350.91;6295068;28;19920;-74
2023/05/19 05:36:22;;;;;;;;;;;;;;;9.62;60.03;97338.19;6294645;28;19920;-76
2023/05/19 05:39:23;;;;;;;;;;;;;;;9.59;60.08;97349.69;6294335;28;19927;-75
2023/05/19 05:42:26;;;;;;;;;;;;;;;9.58;60.16;97350.66;6294414;28;19927;-74
2023/05/19 05:45:27;;;;;;;;;;;;;;;9.57;60.33;97356.00;6294266;28;19927;-75
2023/05/19 05:48:31;;;;;;;;;;;;;;;9.62;60.15;97359.19;6294956;28;20007;-75
2023/05/19 05:51:35;;;;;;;;;;;;;;;9.60;60.56;97355.84;6294886;28;19920;-75
2023/05/19 05:54:53;;;;;;;;;;;;;;;;;;;;;
2023/05/19 05:58:00;;;;;;;;;;;;;;;9.51;60.40;97366.81;6293177;28;19950;-74
2023/05/19 06:01:03;;;;;;;;;;;;;;;9.56;60.43;97370.03;6294595;28;19960;-74
2023/05/19 06:04:06;;;;;;;;;;;;;;;9.51;60.51;97366.81;6294433;28;19920;-75
2023/05/19 06:07:07;;;;;;;;;;;;;;;9.59;60.76;97375.13;6295750;28;19928;-75
2023/05/19 06:10:09;;;;;;;;;;;;;;;9.57;60.93;97377.00;6281392;28;20277;-75
2023/05/19 06:13:12;;;;;;;;;;;;;;;9.52;60.76;97373.78;6299836;28;19920;-75
2023/05/19 06:16:13;;;;;;;;;;;;;;;9.49;60.81;97376.56;6299299;28;19920;-74
2023/05/19 06:19:18;;;;;;;;;;;;;;;9.50;61.10;97368.59;6299523;28;19928;-75
2023/05/19 06:22:23;;;;;;;;;;;;;;;9.49;61.19;97374.78;6299577;28;19920;-74
2023/05/19 06:25:27;;;;;;;;;;;;;;;9.42;61.40;97366.34;6299361;28;19920;-74
2023/05/19 06:28:28;;;;;;;;;;;;;;;9.38;61.18;97371.88;6299068;28;19952;-75
2023/05/19 06:31:30;;;;;;;;;;;;;;;9.32;61.37;97367.78;6298780;28;19926;-75
2023/05/19 06:34:33;;;;;;;;;;;;;;;9.35;61.91;97367.63;6299184;28;19928;-74
2023/05/19 06:37:34;;;;;;;;;;;;;;;9.35;61.81;97372.88;6281260;28;20326;-75
2023/05/19 06:40:38;;;;;;;;;;;;;;;9.25;62.00;97376.88;6298999;28;19920;-75
2023/05/19 06:43:39;;;;;;;;;;;;;;;9.21;62.17;97370.13;6298441;28;20400;-75
2023/05/19 06:46:41;;;;;;;;;;;;;;;9.28;62.30;97371.47;6299579;28;20017;-75
2023/05/19 06:49:45;;;;;;;;;;;;;;;9.23;62.17;97373.50;6281875;28;19985;-75
2023/05/19 06:52:48;;;;;;;;;;;;;;;9.31;62.45;97376.56;6298517;28;19942;-74
2023/05/19 06:55:55;;;;;;;;;;;;;;;9.40;62.37;97375.28;6298818;28;19920;-76
2023/05/19 06:58:58;;;;;;;;;;;;;;;9.43;62.67;97370.69;6298629;28;19920;-76
2023/05/19 07:02:01;;;;;;;;;;;;;;;9.32;62.96;97382.69;6298995;28;19920;-75
2023/05/19 07:05:02;;;;;;;;;;;;;;;9.18;63.22;97375.53;6298147;28;20065;-74
2023/05/19 07:08:07;;;;;;;;;;;;;;;9.23;64.01;97381.41;6298365;28;20297;-75
2023/05/19 07:11:08;;;;;;;;;;;;;;;9.08;64.55;97385.63;6297312;28;20278;-74
2023/05/19 07:14:11;;;;;;;;;;;;;;;8.93;64.55;97387.25;6297270;28;20007;-75
2023/05/19 07:17:15;;;;;;;;;;;;;;;8.94;64.53;97383.69;6297657;28;19920;-74
2023/05/19 07:20:19;;;;;;;;;;;;;;;9.06;64.87;97390.13;6298189;28;19920;-74
2023/05/19 07:23:20;;;;;;;;;;;;;;;8.93;65.35;97387.25;6297486;28;20408;-75
2023/05/19 07:26:26;;;;;;;;;;;;;;;8.87;65.83;97377.06;6297181;28;19921;-75
2023/05/19 07:29:29;;;;;;;;;;;;;;;8.97;66.35;97382.69;6297033;28;19926;-74
2023/05/19 07:32:33;;;;;;;;;;;;;;;9.02;66.14;97385.09;6298019;28;19927;-74
2023/05/19 07:35:38;;;;;;;;;;;;;;;9.10;66.82;97389.03;6297877;28;20293;-75
2023/05/19 07:38:40;;;;;;;;;;;;;;;9.02;66.96;97392.97;6297179;28;19920;-75
2023/05/19 07:41:43;;;;;;;;;;;;;;;8.90;67.02;97387.41;6297740;28;19920;-75
2023/05/19 07:44:46;;;;;;;;;;;;;;;9.01;67.10;97384.25;6297232;28;19920;-73
2023/05/19 07:47:55;;;;;;;;;;;;;;;9.05;67.50;97385.78;6297604;28;19954;-74
2023/05/19 07:50:58;;;;;;;;;;;;;;;9.07;67.32;97383.09;6297350;28;19921;-74
2023/05/19 07:54:04;;;;;;;;;;;;;;;9.11;67.45;97390.72;6297369;28;19920;-73
2023/05/19 07:57:10;;;;;;;;;;;;;;;9.31;66.99;97386.22;6297327;28;19920;-75
2023/05/19 08:00:13;;;;;;;;;;;;;;;9.46;66.79;97389.88;6297456;28;19920;-75
2023/05/19 08:03:16;;;;;;;;;;;;;;;9.60;66.64;97387.34;6296436;28;19928;-75
2023/05/19 08:06:21;;;;;;;;;;;;;;;9.64;66.66;97388.88;6297030;28;20416;-75
2023/05/19 08:09:25;;;;;;;;;;;;;;;9.69;66.78;97389.50;6296883;28;20327;-76
2023/05/19 08:12:31;;;;;;;;;;;;;;;9.71;66.56;97392.91;6296979;28;19920;-75
2023/05/19 08:15:32;;;;;;;;;;;;;;;9.81;66.56;97385.34;6296963;28;19924;-75
2023/05/19 08:18:33;;;;;;;;;;;;;;;9.86;66.72;97385.97;6295280;28;19927;-74
2023/05/19 08:21:38;;;;;;;;;;;;;;;9.86;66.85;97378.91;6296651;28;19920;-74
2023/05/19 08:24:42;;;;;;;;;;;;;;;9.85;66.75;97381.63;6295662;28;19923;-75
2023/05/19 08:27:45;;;;;;;;;;;;;;;9.88;66.74;97392.84;6297181;28;19927;-74
2023/05/19 08:31:07;;;;;;;;;;;;;;;9.79;66.89;97388.06;6279068;28;19917;-75
2023/05/19 08:34:11;;;;;;;;;;;;;;;9.66;67.26;97393.13;6295681;28;19920;-75
2023/05/19 08:37:15;;;;;;;;;;;;;;;9.73;67.22;97392.81;6296571;28;19920;-74
2023/05/19 08:40:19;;;;;;;;;;;;;;;9.84;67.32;97380.78;6296410;28;19920;-75
2023/05/19 08:43:27;;;;;;;;;;;;;;;9.83;67.54;97389.59;6296117;28;19985;-75
2023/05/19 08:46:31;;;;;;;;;;;;;;;9.84;67.90;97396.53;6296112;28;19920;-76
2023/05/19 08:49:36;;;;;;;;;;;;;;;9.78;67.69;97402.13;6295828;28;19920;-75
2023/05/19 08:52:37;;;;;;;;;;;;;;;9.96;67.82;97396.81;6294906;28;19920;-75
2023/05/19 08:55:53;;;;;;;;;;;;;;;10.12;67.57;97401.16;6294733;28;19927;-76
2023/05/19 08:58:58;;;;;;;;;;;;;;;10.38;67.66;97406.81;6295058;28;20386;-74
2023/05/19 09:02:04;;;;;;;;;;;;;;;10.38;67.15;97405.97;6295845;28;19920;-75
2023/05/19 09:05:06;;;;;;;;;;;;;;;10.45;66.92;97407.31;6277256;28;19963;-76
2023/05/19 09:08:10;;;;;;;;;;;;;;;10.52;66.94;97408.66;6295574;28;19920;-75
2023/05/19 09:11:16;;;;;;;;;;;;;;;10.55;66.99;97408.50;6277406;28;19920;-76
2023/05/19 09:14:17;;;;;;;;;;;;;;;10.52;67.07;97408.66;6294550;28;19927;-75
2023/05/19 09:17:18;;;;;;;;;;;;;;;10.48;67.18;97415.91;6295247;28;19920;-75
2023/05/19 09:20:21;;;;;;;;;;;;;;;10.48;67.43;97423.78;6294720;28;19920;-74
2023/05/19 09:23:28;;;;;;;;;;;;;;;10.53;67.48;97412.97;6295260;28;19928;-73
2023/05/19 09:26:36;;;;;;;;;;;;;;;10.64;67.42;97418.50;6295128;28;19916;-75
2023/05/19 09:29:39;;;;;;;;;;;;;;;10.61;67.46;97423.94;6295092;28;19921;-75
2023/05/19 09:32:44;;;;;;;;;;;;;;;10.74;67.22;97432.00;6294350;28;20015;-73
2023/05/19 09:35:48;;;;;;;;;;;;;;;10.83;67.27;97433.25;6294584;28;19920;-75
2023/05/19 09:38:52;;;;;;;;;;;;;;;10.96;67.15;97432.47;6294145;28;19920;-75
2023/05/19 09:41:57;;;;;;;;;;;;;;;11.15;66.93;97434.91;6294173;28;20404;-74
2023/05/19 09:45:02;;;;;;;;;;;;;;;11.28;66.57;97419.22;6261906;28;20003;-75
2023/05/19 09:48:10;;;;;;;;;;;;;;;11.36;66.38;97431.94;6295168;28;19921;-75
2023/05/19 09:51:13;;;;;;;;;;;;;;;11.42;66.54;97426.31;6294667;28;19943;-75
2023/05/19 09:54:19;;;;;;;;;;;;;;;11.38;66.23;97437.94;6294984;28;19920;-76
2023/05/19 09:57:27;;;;;;;;;;;;;;;11.37;66.48;97438.91;6294855;28;19924;-75
2023/05/19 10:00:33;;;;;;;;;;;;;;;11.24;66.79;97438.78;6294635;28;19920;-74
2023/05/19 10:03:35;;;;;;;;;;;;;;;11.26;66.79;97436.88;6294036;28;19920;-75
2023/05/19 10:06:39;;;;;;;;;;;;;;;11.10;66.90;97439.59;6277133;28;19920;-74
2023/05/19 10:09:43;;;;;;;;;;;;;;;10.95;67.00;97448.34;6294763;28;19920;-75
2023/05/19 10:12:51;;;;;;;;;;;;;;;10.93;67.04;97442.34;6294679;28;20404;-76
2023/05/19 10:15:53;;;;;;;;;;;;;;;11.00;66.99;97449.78;6293606;28;20065;-75
2023/05/19 10:18:57;;;;;;;;;;;;;;;11.04;66.92;97445.22;6294286;28;20378;-74
2023/05/19 10:22:00;;;;;;;;;;;;;;;11.07;66.66;97442.41;6294492;28;20389;-75
2023/05/19 10:25:01;;;;;;;;;;;;;;;11.11;66.69;97438.63;6293725;28;20001;-75
2023/05/19 10:28:07;;;;;;;;;;;;;;;11.14;66.48;97438.44;6293617;28;19921;-74
2023/05/19 10:31:12;;;;;;;;;;;;;;;11.11;66.60;97443.06;6294272;28;20028;-75
2023/05/19 10:34:26;;;;;;;;;;;;;;;11.04;66.66;97442.56;6294535;28;19925;-75
2023/05/19 10:37:44;;;;;;;;;;;;;;;11.07;66.54;97447.66;6294404;28;19921;-74
2023/05/19 10:40:51;;;;;;;;;;;;;;;11.08;66.65;97454.63;6294042;28;19920;-75
2023/05/19 10:44:08;;;;;;;;;;;;;;;11.12;66.59;97452.66;6294373;28;19925;-73
2023/05/19 10:47:11;;;;;;;;;;;;;;;11.14;66.55;97449.00;6293290;28;20378;-75
2023/05/19 10:50:16;;;;;;;;;;;;;;;11.16;66.60;97447.13;6294064;28;19920;-75
2023/05/19 10:53:29;;;;;;;;;;;;;;;11.19;66.44;97449.56;6296377;28;20301;-75
2023/05/19 10:56:35;;;;;;;;;;;;;;;11.16;66.35;97446.28;6298366;28;20297;-74
2023/05/19 10:59:40;;;;;;;;;;;;;;;11.13;66.54;97457.84;6298615;28;19920;-74
2023/05/19 11:02:44;;;;;;;;;;;;;;;11.14;66.58;97459.53;6298441;28;19920;-74
2023/05/19 11:05:49;;;;;;;;;;;;;;;11.16;66.34;97457.66;6297969;28;19923;-75
2023/05/19 11:09:00;;;;;;;;;;;;;;;11.12;66.46;97450.84;6298036;28;19935;-75
2023/05/19 11:12:02;;;;;;;;;;;;;;;11.11;66.68;97449.16;6297910;28;20337;-74
2023/05/19 11:15:07;;;;;;;;;;;;;;;11.12;66.66;97453.50;6298062;28;19920;-75
2023/05/19 11:18:14;;;;;;;;;;;;;;;11.13;66.44;97451.72;6296531;28;19977;-75
2023/05/19 11:21:18;;;;;;;;;;;;;;;11.13;66.75;97457.84;6297632;28;19920;-74
2023/05/19 11:24:43;;;;;;;;;;;;;;;11.19;66.33;97457.47;6298149;28;20400;-76
2023/05/19 11:27:47;;;;;;;;;;;;;;;11.20;66.19;97446.00;6296645;28;19974;-75
2023/05/19 11:30:52;;;;;;;;;;;;;;;11.25;66.09;97456.28;6297540;28;19946;-75
2023/05/19 11:33:57;;;;;;;;;;;;;;;11.34;66.23;97460.16;6297693;28;20025;-74
2023/05/19 11:37:10;;;;;;;;;;;;;;;11.42;65.91;97465.81;6297411;28;19927;-75
2023/05/19 11:40:14;;;;;;;;;;;;;;;11.43;65.58;97463.09;6297615;28;19920;-75
2023/05/19 11:43:16;;;;;;;;;;;;;;;11.47;65.75;97466.41;6296898;28;19931;-74
2023/05/19 11:46:17;;;;;;;;;;;;;;;11.59;65.53;97463.03;6297596;28;19920;-75
2023/05/19 11:49:21;;;;;;;;;;;;;;;11.72;65.25;97472.84;6297513;28;19943;-74
2023/05/19 11:52:26;;;;;;;;;;;;;;;11.83;65.25;97462.50;6297371;28;19920;-75
2023/05/19 11:55:27;;;;;;;;;;;;;;;11.90;64.71;97464.72;6296801;28;19920;-74
2023/05/19 11:58:30;;;;;;;;;;;;;;;11.93;64.91;97461.03;6297337;28;19920;-74
2023/05/19 12:01:32;;;;;;;;;;;;;;;12.01;64.43;97466.69;6297249;28;19920;-74
2023/05/19 12:04:33;;;;;;;;;;;;;;;12.04;64.20;97455.97;6295178;28;20003;-74
2023/05/19 12:07:38;;;;;;;;;;;;;;;12.10;64.04;97458.22;6296717;28;19927;-74
2023/05/19 12:10:46;;;;;;;;;;;;;;;12.23;64.18;97460.09;6279334;28;20003;-76
2023/05/19 12:13:49;;;;;;;;;;;;;;;12.21;63.73;97462.84;6296213;28;19920;-74
2023/05/19 12:16:53;;;;;;;;;;;;;;;12.17;64.07;97471.03;6296724;28;19920;-74
2023/05/19 12:19:58;;;;;;;;;;;;;;;12.18;63.89;97473.59;6296887;28;19950;-73
2023/05/19 12:23:05;;;;;;;;;;;;;;;12.11;64.00;97465.19;6277120;28;19952;-74
2023/05/19 12:26:08;;;;;;;;;;;;;;;12.09;64.04;97464.44;6296482;28;19920;-74
2023/05/19 12:29:15;;;;;;;;;;;;;;;12.27;63.94;97464.25;6296457;28;19920;-74
2023/05/19 12:32:25;;;;;;;;;;;;;;;12.41;63.25;97469.50;6296431;28;20313;-74
2023/05/19 12:35:32;;;;;;;;;;;;;;;12.46;63.42;97466.59;6296963;28;20301;-74
2023/05/19 12:38:41;;;;;;;;;;;;;;;12.42;63.55;97465.91;6296492;28;19920;-75
2023/05/19 12:41:43;;;;;;;;;;;;;;;12.35;63.77;97468.09;6295638;28;20434;-74
2023/05/19 12:44:51;;;;;;;;;;;;;;;12.33;63.86;97459.41;6296185;28;19920;-74
2023/05/19 12:47:57;;;;;;;;;;;;;;;12.39;63.95;97455.56;6296164;28;20480;-75
2023/05/19 12:51:01;;;;;;;;;;;;;;;12.47;63.50;97455.91;6296164;28;19927;-75
2023/05/19 12:54:05;;;;;;;;;;;;;;;12.40;63.57;97456.41;6295995;28;20291;-76
2023/05/19 12:57:06;;;;;;;;;;;;;;;12.35;63.71;97452.25;6295337;28;20293;-75
2023/05/19 13:00:12;;;;;;;;;;;;;;;12.33;64.05;97455.94;6294925;28;19955;-74
2023/05/19 13:03:18;;;;;;;;;;;;;;;12.29;63.81;97460.56;6277750;28;20069;-75
2023/05/19 13:06:19;;;;;;;;;;;;;;;12.19;64.09;97453.31;6295329;28;19920;-73
2023/05/19 13:09:23;;;;;;;;;;;;;;;11.98;64.38;97464.25;6277183;28;19999;-74
2023/05/19 13:12:24;;;;;;;;;;;;;;;11.78;64.97;97464.59;6295057;28;19920;-75
2023/05/19 13:15:27;;;;;;;;;;;;;;;11.57;66.08;97464.91;6294137;28;19920;-75
2023/05/19 13:18:36;;;;;;;;;;;;;;;11.56;66.18;97465.84;6295758;28;20007;-76
2023/05/19 13:21:40;;;;;;;;;;;;;;;11.67;66.46;97466.06;6295723;28;20444;-75
2023/05/19 13:24:41;;;;;;;;;;;;;;;11.72;66.25;97467.56;6294281;28;19925;-74
2023/05/19 13:27:49;;;;;;;;;;;;;;;11.77;66.12;97460.25;6294914;28;19928;-74
2023/05/19 13:30:50;;;;;;;;;;;;;;;11.69;66.11;97466.84;6293516;28;20389;-74
2023/05/19 13:33:54;;;;;;;;;;;;;;;11.65;66.23;97460.03;6294909;28;19921;-76
2023/05/19 13:37:02;;;;;;;;;;;;;;;11.68;66.13;97459.84;6295163;28;20348;-75
2023/05/19 13:40:06;;;;;;;;;;;;;;;11.66;66.31;97456.47;6294838;28;19920;-74
2023/05/19 13:43:09;;;;;;;;;;;;;;;11.71;66.43;97458.81;6261494;28;19949;-75
2023/05/19 13:46:13;;;;;;;;;;;;;;;11.62;66.22;97451.47;6294414;28;20421;-74
2023/05/19 13:49:17;;;;;;;;;;;;;;;11.55;66.13;97451.00;6295033;28;19920;-75
2023/05/19 13:52:19;;;;;;;;;;;;;;;11.51;66.31;97449.47;6294171;28;20381;-75
2023/05/19 13:55:23;;;;;;;;;;;;;;;11.59;66.34;97447.22;6294882;28;19920;-75
2023/05/19 13:58:30;;;;;;;;;;;;;;;11.59;66.04;97449.84;6294836;28;19916;-74
2023/05/19 14:01:36;;;;;;;;;;;;;;;11.60;65.95;97434.88;6275877;28;19920;-75
2023/05/19 14:04:39;;;;;;;;;;;;;;;11.58;65.89;97442.91;6294586;28;20298;-74
2023/05/19 14:07:41;;;;;;;;;;;;;;;11.59;65.91;97436.69;6293355;28;19920;-76
2023/05/19 14:10:45;;;;;;;;;;;;;;;11.67;65.83;97436.22;6293313;28;19928;-74
2023/05/19 14:13:49;;;;;;;;;;;;;;;11.72;65.83;97428.03;6276260;28;20061;-74
2023/05/19 14:16:52;;;;;;;;;;;;;;;11.68;65.64;97433.50;6294443;28;19920;-75
2023/05/19 14:19:55;;;;;;;;;;;;;;;11.57;65.53;97435.91;6294375;28;19920;-73
2023/05/19 14:22:59;;;;;;;;;;;;;;;11.58;65.83;97437.63;6294539;28;19920;-75
2023/05/19 14:26:00;;;;;;;;;;;;;;;11.56;65.91;97428.97;6293885;28;19916;-74
2023/05/19 14:29:01;;;;;;;;;;;;;;;11.71;65.78;97431.63;6297484;28;19924;-74
2023/05/19 14:32:08;;;;;;;;;;;;;;;11.55;65.54;97432.53;6299547;28;20301;-74
2023/05/19 14:35:09;;;;;;;;;;;;;;;11.50;66.00;97442.50;6298688;28;19920;-75
2023/05/19 14:38:10;;;;;;;;;;;;;;;11.51;65.62;97438.09;6298530;28;19927;-76
2023/05/19 14:41:13;;;;;;;;;;;;;;;11.40;65.97;97442.19;6299086;28;19920;-76
2023/05/19 14:44:17;;;;;;;;;;;;;;;11.33;65.99;97440.03;6298966;28;19920;-75
2023/05/19 14:47:18;;;;;;;;;;;;;;;11.29;66.07;97447.25;6298633;28;19920;-75
2023/05/19 14:50:25;;;;;;;;;;;;;;;11.34;66.28;97444.34;6299083;28;19998;-74
2023/05/19 14:53:26;;;;;;;;;;;;;;;11.29;65.97;97446.41;6298059;28;20015;-74
2023/05/19 14:56:29;;;;;;;;;;;;;;;11.27;65.90;97443.88;6298450;28;19924;-75
2023/05/19 14:59:30;;;;;;;;;;;;;;;11.27;66.32;97443.03;6298169;28;19927;-74
2023/05/19 15:02:35;;;;;;;;;;;;;;;11.27;66.46;97443.03;6297944;28;19920;-75
2023/05/19 15:05:41;;;;;;;;;;;;;;;11.14;66.52;97441.09;6298703;28;20309;-76
2023/05/19 15:08:43;;;;;;;;;;;;;;;11.11;66.66;97441.28;6297833;28;19971;-76
2023/05/19 15:11:48;;;;;;;;;;;;;;;11.10;66.56;97446.63;6298364;28;20376;-75
2023/05/19 15:14:52;;;;;;;;;;;;;;;11.03;66.79;97451.41;6298343;28;20385;-75
2023/05/19 15:17:55;;;;;;;;;;;;;;;10.94;66.88;97454.56;6297362;28;19927;-75
2023/05/19 15:20:59;;;;;;;;;;;;;;;10.98;66.96;97453.44;6298436;28;20015;-74
2023/05/19 15:24:02;;;;;;;;;;;;;;;11.05;66.60;97449.53;6298262;28;19975;-75
2023/05/19 15:27:07;;;;;;;;;;;;;;;11.09;66.99;97444.94;6297930;28;20344;-75
2023/05/19 15:30:12;;;;;;;;;;;;;;;11.00;66.96;97447.16;6297867;28;19931;-75
2023/05/19 15:33:15;;;;;;;;;;;;;;;11.01;66.87;97453.25;6298187;28;20018;-75
2023/05/19 15:36:18;;;;;;;;;;;;;;;11.01;67.11;97454.13;6297785;28;19920;-75
2023/05/19 15:39:21;;;;;;;;;;;;;;;10.94;67.03;97452.78;6297625;28;19920;-76
2023/05/19 15:42:25;;;;;;;;;;;;;;;10.89;67.16;97448.69;6297762;28;19928;-75
2023/05/19 15:45:29;;;;;;;;;;;;;;;10.84;67.35;97451.63;6297614;28;19920;-75
2023/05/19 15:48:35;;;;;;;;;;;;;;;10.84;67.49;97456.88;6297702;28;19921;-75
2023/05/19 15:51:39;;;;;;;;;;;;;;;10.84;67.91;97451.63;6297453;28;19921;-76
2023/05/19 15:54:43;;;;;;;;;;;;;;;10.80;67.81;97455.34;6297569;28;20006;-75
2023/05/19 15:57:48;;;;;;;;;;;;;;;10.67;68.33;97456.94;6297585;28;19920;-75
2023/05/19 16:00:49;;;;;;;;;;;;;;;10.64;68.24;97450.06;6296559;28;19920;-74
2023/05/19 16:03:50;;;;;;;;;;;;;;;10.55;68.16;97450.59;6296308;28;19920;-75
2023/05/19 16:06:51;;;;;;;;;;;;;;;10.53;68.34;97452.44;6296794;28;20425;-75